sensor_id;sensor_type;location;lat;lon;timestamp;temperature;humidity
43772;HTU21D;59066;54.782;32.024;2024-01-15T00:00:46;-1.60;93.99
43772;HTU21D;59066;54.782;32.024;2024-01-15T00:03:14;-1.67;93.97
43772;HTU21D;59066;54.782;32.024;2024-01-15T00:05:42;-1.64;94.15
43772;HTU21D;59066;54.782;32.024;2024-01-15T00:08:10;-1.62;94.08
43772;HTU21D;59066;54.782;32.024;2024-01-15T00:10:38;-1.60;93.99
43772;HTU21D;59066;54.782;32.024;2024-01-15T00:13:07;-1.56;94.14
43772;HTU21D;59066;54.782;32.024;2024-01-15T00:15:35;-1.52;94.21
43772;HTU21D;59066;54.782;32.024;2024-01-15T00:18:04;-1.49;94.17
43772;HTU21D;59066;54.782;32.024;2024-01-15T00:20:32;-1.50;94.16
43772;HTU21D;59066;54.782;32.024;2024-01-15T00:23:00;-1.47;94.14
43772;HTU21D;59066;54.782;32.024;2024-01-15T00:25:28;-1.48;94.08
43772;HTU21D;59066;54.782;32.024;2024-01-15T00:27:56;-1.48;94.23
43772;HTU21D;59066;54.782;32.024;2024-01-15T00:30:24;-1.44;94.20
43772;HTU21D;59066;54.782;32.024;2024-01-15T00:32:51;-1.45;94.22
43772;HTU21D;59066;54.782;32.024;2024-01-15T00:35:19;-1.41;94.20
43772;HTU21D;59066;54.782;32.024;2024-01-15T00:37:47;-1.36;94.26
43772;HTU21D;59066;54.782;32.024;2024-01-15T00:40:15;-1.44;94.32
43772;HTU21D;59066;54.782;32.024;2024-01-15T00:42:42;-1.45;94.37
43772;HTU21D;59066;54.782;32.024;2024-01-15T00:45:10;-1.39;94.43
43772;HTU21D;59066;54.782;32.024;2024-01-15T00:47:38;-1.40;94.55
43772;HTU21D;59066;54.782;32.024;2024-01-15T00:50:06;-1.33;94.51
43772;HTU21D;59066;54.782;32.024;2024-01-15T00:52:34;-1.40;94.49
43772;HTU21D;59066;54.782;32.024;2024-01-15T00:55:01;-1.32;94.55
43772;HTU21D;59066;54.782;32.024;2024-01-15T00:57:29;-1.29;94.62
43772;HTU21D;59066;54.782;32.024;2024-01-15T00:59:57;-1.40;94.72
43772;HTU21D;59066;54.782;32.024;2024-01-15T01:02:26;-1.39;94.71
43772;HTU21D;59066;54.782;32.024;2024-01-15T01:04:54;-1.30;94.84
43772;HTU21D;59066;54.782;32.024;2024-01-15T01:07:21;-1.29;94.90
43772;HTU21D;59066;54.782;32.024;2024-01-15T01:09:49;-1.32;95.07
43772;HTU21D;59066;54.782;32.024;2024-01-15T01:12:18;-1.24;94.92
43772;HTU21D;59066;54.782;32.024;2024-01-15T01:14:46;-1.23;95.04
43772;HTU21D;59066;54.782;32.024;2024-01-15T01:17:14;-1.24;95.03
43772;HTU21D;59066;54.782;32.024;2024-01-15T01:19:42;-1.18;94.94
43772;HTU21D;59066;54.782;32.024;2024-01-15T01:22:10;-1.09;95.01
43772;HTU21D;59066;54.782;32.024;2024-01-15T01:24:37;-1.10;95.05
43772;HTU21D;59066;54.782;32.024;2024-01-15T01:27:05;-1.14;95.11
43772;HTU21D;59066;54.782;32.024;2024-01-15T01:29:33;-1.14;95.15
43772;HTU21D;59066;54.782;32.024;2024-01-15T01:32:00;-1.10;95.19
43772;HTU21D;59066;54.782;32.024;2024-01-15T01:34:28;-1.04;95.16
43772;HTU21D;59066;54.782;32.024;2024-01-15T01:36:58;-0.97;95.26
43772;HTU21D;59066;54.782;32.024;2024-01-15T01:39:26;-0.97;95.08
43772;HTU21D;59066;54.782;32.024;2024-01-15T01:41:54;-1.01;95.08
43772;HTU21D;59066;54.782;32.024;2024-01-15T01:44:22;-0.96;95.09
43772;HTU21D;59066;54.782;32.024;2024-01-15T01:46:49;-1.03;95.10
43772;HTU21D;59066;54.782;32.024;2024-01-15T01:49:17;-1.02;95.07
43772;HTU21D;59066;54.782;32.024;2024-01-15T01:51:46;-0.99;95.32
43772;HTU21D;59066;54.782;32.024;2024-01-15T01:54:15;-0.93;95.24
43772;HTU21D;59066;54.782;32.024;2024-01-15T01:56:42;-0.99;95.33
43772;HTU21D;59066;54.782;32.024;2024-01-15T01:59:11;-0.96;95.44
43772;HTU21D;59066;54.782;32.024;2024-01-15T02:01:39;-0.90;95.43
43772;HTU21D;59066;54.782;32.024;2024-01-15T02:04:08;-0.94;95.59
43772;HTU21D;59066;54.782;32.024;2024-01-15T02:06:36;-0.91;95.48
43772;HTU21D;59066;54.782;32.024;2024-01-15T02:09:04;-0.82;95.57
43772;HTU21D;59066;54.782;32.024;2024-01-15T02:11:36;-0.84;95.66
43772;HTU21D;59066;54.782;32.024;2024-01-15T02:14:03;-0.86;95.72
43772;HTU21D;59066;54.782;32.024;2024-01-15T02:16:31;-0.79;95.85
43772;HTU21D;59066;54.782;32.024;2024-01-15T02:18:58;-0.76;95.81
43772;HTU21D;59066;54.782;32.024;2024-01-15T02:21:26;-0.80;95.98
43772;HTU21D;59066;54.782;32.024;2024-01-15T02:23:57;-0.75;95.96
43772;HTU21D;59066;54.782;32.024;2024-01-15T02:26:25;-0.76;96.07
43772;HTU21D;59066;54.782;32.024;2024-01-15T02:28:53;-0.72;95.91
43772;HTU21D;59066;54.782;32.024;2024-01-15T02:31:21;-0.75;96.09
43772;HTU21D;59066;54.782;32.024;2024-01-15T02:33:49;-0.71;96.13
43772;HTU21D;59066;54.782;32.024;2024-01-15T02:36:17;-0.59;96.34
43772;HTU21D;59066;54.782;32.024;2024-01-15T02:38:46;-0.62;96.41
43772;HTU21D;59066;54.782;32.024;2024-01-15T02:41:13;-0.61;96.39
43772;HTU21D;59066;54.782;32.024;2024-01-15T02:43:41;-0.61;96.42
43772;HTU21D;59066;54.782;32.024;2024-01-15T02:46:09;-0.60;96.45
43772;HTU21D;59066;54.782;32.024;2024-01-15T02:48:37;-0.58;96.43
43772;HTU21D;59066;54.782;32.024;2024-01-15T02:51:05;-0.50;96.40
43772;HTU21D;59066;54.782;32.024;2024-01-15T02:53:32;-0.51;96.58
43772;HTU21D;59066;54.782;32.024;2024-01-15T02:56:00;-0.45;96.42
43772;HTU21D;59066;54.782;32.024;2024-01-15T02:58:28;-0.50;96.35
43772;HTU21D;59066;54.782;32.024;2024-01-15T03:00:56;-0.45;96.40
43772;HTU21D;59066;54.782;32.024;2024-01-15T03:03:23;-0.50;96.34
43772;HTU21D;59066;54.782;32.024;2024-01-15T03:05:52;-0.45;96.55
43772;HTU21D;59066;54.782;32.024;2024-01-15T03:08:20;-0.45;96.45
43772;HTU21D;59066;54.782;32.024;2024-01-15T03:10:47;-0.40;96.41
43772;HTU21D;59066;54.782;32.024;2024-01-15T03:13:15;-0.31;96.29
43772;HTU21D;59066;54.782;32.024;2024-01-15T03:15:43;-0.44;96.29
43772;HTU21D;59066;54.782;32.024;2024-01-15T03:18:11;-0.38;96.33
43772;HTU21D;59066;54.782;32.024;2024-01-15T03:20:39;-0.40;96.28
43772;HTU21D;59066;54.782;32.024;2024-01-15T03:23:07;-0.40;96.33
43772;HTU21D;59066;54.782;32.024;2024-01-15T03:25:34;-0.42;96.40
43772;HTU21D;59066;54.782;32.024;2024-01-15T03:28:05;-0.39;96.19
43772;HTU21D;59066;54.782;32.024;2024-01-15T03:30:33;-0.42;96.32
43772;HTU21D;59066;54.782;32.024;2024-01-15T03:33:00;-0.29;96.39
43772;HTU21D;59066;54.782;32.024;2024-01-15T03:35:28;-0.30;96.29
43772;HTU21D;59066;54.782;32.024;2024-01-15T03:37:57;-0.40;96.39
43772;HTU21D;59066;54.782;32.024;2024-01-15T03:40:25;-0.41;96.44
43772;HTU21D;59066;54.782;32.024;2024-01-15T03:42:53;-0.38;96.58
43772;HTU21D;59066;54.782;32.024;2024-01-15T03:45:21;-0.38;96.64
43772;HTU21D;59066;54.782;32.024;2024-01-15T03:47:49;-0.42;96.68
43772;HTU21D;59066;54.782;32.024;2024-01-15T03:50:17;-0.37;96.81
43772;HTU21D;59066;54.782;32.024;2024-01-15T03:52:45;-0.35;96.91
43772;HTU21D;59066;54.782;32.024;2024-01-15T03:55:12;-0.39;96.86
43772;HTU21D;59066;54.782;32.024;2024-01-15T03:57:40;-0.36;96.97
43772;HTU21D;59066;54.782;32.024;2024-01-15T04:00:08;-0.35;97.07
43772;HTU21D;59066;54.782;32.024;2024-01-15T04:02:36;-0.31;97.15
43772;HTU21D;59066;54.782;32.024;2024-01-15T04:05:04;-0.28;97.11
43772;HTU21D;59066;54.782;32.024;2024-01-15T04:07:32;-0.34;97.20
43772;HTU21D;59066;54.782;32.024;2024-01-15T04:09:59;-0.32;97.26
43772;HTU21D;59066;54.782;32.024;2024-01-15T04:12:27;-0.28;97.50
43772;HTU21D;59066;54.782;32.024;2024-01-15T04:14:55;-0.30;97.32
43772;HTU21D;59066;54.782;32.024;2024-01-15T04:17:23;-0.28;97.49
43772;HTU21D;59066;54.782;32.024;2024-01-15T04:19:50;-0.26;97.46
43772;HTU21D;59066;54.782;32.024;2024-01-15T04:22:18;-0.23;97.45
43772;HTU21D;59066;54.782;32.024;2024-01-15T04:24:45;-0.21;97.52
43772;HTU21D;59066;54.782;32.024;2024-01-15T04:27:14;-0.21;97.59
43772;HTU21D;59066;54.782;32.024;2024-01-15T04:29:42;-0.17;97.65
43772;HTU21D;59066;54.782;32.024;2024-01-15T04:32:12;-0.14;97.58
43772;HTU21D;59066;54.782;32.024;2024-01-15T04:34:40;-0.16;97.60
43772;HTU21D;59066;54.782;32.024;2024-01-15T04:37:08;-0.06;97.68
43772;HTU21D;59066;54.782;32.024;2024-01-15T04:39:35;-0.07;97.62
43772;HTU21D;59066;54.782;32.024;2024-01-15T04:42:03;-0.08;97.54
43772;HTU21D;59066;54.782;32.024;2024-01-15T04:44:31;-0.06;97.64
43772;HTU21D;59066;54.782;32.024;2024-01-15T04:46:59;0.01;97.87
43772;HTU21D;59066;54.782;32.024;2024-01-15T04:49:27;-0.00;97.71
43772;HTU21D;59066;54.782;32.024;2024-01-15T04:51:57;-0.01;97.47
43772;HTU21D;59066;54.782;32.024;2024-01-15T04:54:24;0.04;97.70
43772;HTU21D;59066;54.782;32.024;2024-01-15T04:56:52;0.04;97.71
43772;HTU21D;59066;54.782;32.024;2024-01-15T04:59:19;0.04;97.64
43772;HTU21D;59066;54.782;32.024;2024-01-15T05:01:47;0.08;97.81
43772;HTU21D;59066;54.782;32.024;2024-01-15T05:04:16;0.04;97.49
43772;HTU21D;59066;54.782;32.024;2024-01-15T05:06:45;0.05;97.85
43772;HTU21D;59066;54.782;32.024;2024-01-15T05:09:13;0.10;97.79
43772;HTU21D;59066;54.782;32.024;2024-01-15T05:11:41;0.06;97.79
43772;HTU21D;59066;54.782;32.024;2024-01-15T05:14:08;0.06;97.62
43772;HTU21D;59066;54.782;32.024;2024-01-15T05:16:38;0.10;97.80
43772;HTU21D;59066;54.782;32.024;2024-01-15T05:19:07;0.08;97.79
43772;HTU21D;59066;54.782;32.024;2024-01-15T05:21:36;0.14;97.74
43772;HTU21D;59066;54.782;32.024;2024-01-15T05:24:04;0.14;97.68
43772;HTU21D;59066;54.782;32.024;2024-01-15T05:26:32;0.14;97.74
43772;HTU21D;59066;54.782;32.024;2024-01-15T05:29:00;0.16;97.86
43772;HTU21D;59066;54.782;32.024;2024-01-15T05:31:27;0.16;97.67
43772;HTU21D;59066;54.782;32.024;2024-01-15T05:33:55;0.15;97.79
43772;HTU21D;59066;54.782;32.024;2024-01-15T05:36:23;0.16;97.69
43772;HTU21D;59066;54.782;32.024;2024-01-15T05:38:51;0.14;97.74
43772;HTU21D;59066;54.782;32.024;2024-01-15T05:41:20;0.19;97.94
43772;HTU21D;59066;54.782;32.024;2024-01-15T05:43:48;0.18;97.52
43772;HTU21D;59066;54.782;32.024;2024-01-15T05:46:16;0.18;97.79
43772;HTU21D;59066;54.782;32.024;2024-01-15T05:48:44;0.22;98.00
43772;HTU21D;59066;54.782;32.024;2024-01-15T05:51:12;0.31;97.95
43772;HTU21D;59066;54.782;32.024;2024-01-15T05:53:40;0.27;97.94
43772;HTU21D;59066;54.782;32.024;2024-01-15T05:56:10;0.27;97.71
43772;HTU21D;59066;54.782;32.024;2024-01-15T05:58:38;0.28;97.76
43772;HTU21D;59066;54.782;32.024;2024-01-15T06:01:06;0.29;97.99
43772;HTU21D;59066;54.782;32.024;2024-01-15T06:03:36;0.25;97.77
43772;HTU21D;59066;54.782;32.024;2024-01-15T06:06:05;0.30;97.81
43772;HTU21D;59066;54.782;32.024;2024-01-15T06:08:32;0.31;97.86
43772;HTU21D;59066;54.782;32.024;2024-01-15T06:11:00;0.23;97.73
43772;HTU21D;59066;54.782;32.024;2024-01-15T06:13:28;0.28;97.90
43772;HTU21D;59066;54.782;32.024;2024-01-15T06:15:55;0.28;97.71
43772;HTU21D;59066;54.782;32.024;2024-01-15T06:18:23;0.30;97.84
43772;HTU21D;59066;54.782;32.024;2024-01-15T06:20:51;0.35;97.71
43772;HTU21D;59066;54.782;32.024;2024-01-15T06:23:19;0.37;97.41
43772;HTU21D;59066;54.782;32.024;2024-01-15T06:25:47;0.38;97.39
43772;HTU21D;59066;54.782;32.024;2024-01-15T06:28:15;0.37;97.36
43772;HTU21D;59066;54.782;32.024;2024-01-15T06:30:42;0.32;97.34
43772;HTU21D;59066;54.782;32.024;2024-01-15T06:33:10;0.31;97.49
43772;HTU21D;59066;54.782;32.024;2024-01-15T06:35:38;0.28;97.33
43772;HTU21D;59066;54.782;32.024;2024-01-15T06:38:06;0.29;97.50
43772;HTU21D;59066;54.782;32.024;2024-01-15T06:40:34;0.31;97.52
43772;HTU21D;59066;54.782;32.024;2024-01-15T06:43:02;0.36;97.61
43772;HTU21D;59066;54.782;32.024;2024-01-15T06:45:29;0.38;97.61
43772;HTU21D;59066;54.782;32.024;2024-01-15T06:47:58;0.37;97.55
43772;HTU21D;59066;54.782;32.024;2024-01-15T06:50:25;0.38;97.53
43772;HTU21D;59066;54.782;32.024;2024-01-15T06:52:53;0.40;97.54
43772;HTU21D;59066;54.782;32.024;2024-01-15T06:55:20;0.38;97.50
43772;HTU21D;59066;54.782;32.024;2024-01-15T06:57:48;0.45;97.44
43772;HTU21D;59066;54.782;32.024;2024-01-15T07:00:16;0.45;97.37
43772;HTU21D;59066;54.782;32.024;2024-01-15T07:02:44;0.48;97.23
43772;HTU21D;59066;54.782;32.024;2024-01-15T07:05:12;0.53;97.19
43772;HTU21D;59066;54.782;32.024;2024-01-15T07:07:40;0.52;97.19
43772;HTU21D;59066;54.782;32.024;2024-01-15T07:10:08;0.55;97.23
43772;HTU21D;59066;54.782;32.024;2024-01-15T07:12:35;0.64;97.03
43772;HTU21D;59066;54.782;32.024;2024-01-15T07:15:03;0.68;96.89
43772;HTU21D;59066;54.782;32.024;2024-01-15T07:17:35;0.62;96.80
43772;HTU21D;59066;54.782;32.024;2024-01-15T07:20:08;0.66;96.51
43772;HTU21D;59066;54.782;32.024;2024-01-15T07:22:36;0.71;96.58
43772;HTU21D;59066;54.782;32.024;2024-01-15T07:25:05;0.66;96.15
43772;HTU21D;59066;54.782;32.024;2024-01-15T07:27:34;0.64;96.44
43772;HTU21D;59066;54.782;32.024;2024-01-15T07:30:02;0.68;96.17
43772;HTU21D;59066;54.782;32.024;2024-01-15T07:32:32;0.65;95.94
43772;HTU21D;59066;54.782;32.024;2024-01-15T07:35:00;0.69;96.07
43772;HTU21D;59066;54.782;32.024;2024-01-15T07:37:30;0.76;95.88
43772;HTU21D;59066;54.782;32.024;2024-01-15T07:39:57;0.66;95.69
43772;HTU21D;59066;54.782;32.024;2024-01-15T07:42:26;0.68;95.96
43772;HTU21D;59066;54.782;32.024;2024-01-15T07:44:54;0.68;95.81
43772;HTU21D;59066;54.782;32.024;2024-01-15T07:47:22;0.65;95.84
43772;HTU21D;59066;54.782;32.024;2024-01-15T07:49:52;0.66;95.85
43772;HTU21D;59066;54.782;32.024;2024-01-15T07:52:20;0.69;96.03
43772;HTU21D;59066;54.782;32.024;2024-01-15T07:54:49;0.65;95.97
43772;HTU21D;59066;54.782;32.024;2024-01-15T07:57:17;0.67;96.27
43772;HTU21D;59066;54.782;32.024;2024-01-15T07:59:45;0.72;96.29
43772;HTU21D;59066;54.782;32.024;2024-01-15T08:02:13;0.73;95.94
43772;HTU21D;59066;54.782;32.024;2024-01-15T08:04:42;0.71;96.33
43772;HTU21D;59066;54.782;32.024;2024-01-15T08:07:10;0.71;96.40
43772;HTU21D;59066;54.782;32.024;2024-01-15T08:09:38;0.77;96.47
43772;HTU21D;59066;54.782;32.024;2024-01-15T08:12:07;0.75;96.43
43772;HTU21D;59066;54.782;32.024;2024-01-15T08:14:35;0.74;96.21
43772;HTU21D;59066;54.782;32.024;2024-01-15T08:17:02;0.75;96.61
43772;HTU21D;59066;54.782;32.024;2024-01-15T08:19:30;0.83;96.61
43772;HTU21D;59066;54.782;32.024;2024-01-15T08:22:00;0.84;96.28
43772;HTU21D;59066;54.782;32.024;2024-01-15T08:24:27;0.90;96.60
43772;HTU21D;59066;54.782;32.024;2024-01-15T08:26:56;0.91;96.38
43772;HTU21D;59066;54.782;32.024;2024-01-15T08:29:23;0.88;96.26
43772;HTU21D;59066;54.782;32.024;2024-01-15T08:31:52;0.90;96.22
43772;HTU21D;59066;54.782;32.024;2024-01-15T08:34:20;0.93;95.96
43772;HTU21D;59066;54.782;32.024;2024-01-15T08:36:47;0.95;95.58
43772;HTU21D;59066;54.782;32.024;2024-01-15T08:39:15;0.94;95.88
43772;HTU21D;59066;54.782;32.024;2024-01-15T08:41:43;0.93;95.36
43772;HTU21D;59066;54.782;32.024;2024-01-15T08:44:10;1.02;95.25
43772;HTU21D;59066;54.782;32.024;2024-01-15T08:46:38;1.02;94.96
43772;HTU21D;59066;54.782;32.024;2024-01-15T08:49:06;1.11;94.98
43772;HTU21D;59066;54.782;32.024;2024-01-15T08:51:34;1.12;94.49
43772;HTU21D;59066;54.782;32.024;2024-01-15T08:54:02;1.13;94.62
43772;HTU21D;59066;54.782;32.024;2024-01-15T08:56:30;1.14;94.46
43772;HTU21D;59066;54.782;32.024;2024-01-15T08:58:58;1.14;94.32
43772;HTU21D;59066;54.782;32.024;2024-01-15T09:01:25;1.11;94.23
43772;HTU21D;59066;54.782;32.024;2024-01-15T09:03:53;1.07;94.03
43772;HTU21D;59066;54.782;32.024;2024-01-15T09:06:21;1.09;94.59
43772;HTU21D;59066;54.782;32.024;2024-01-15T09:08:49;1.09;94.60
43772;HTU21D;59066;54.782;32.024;2024-01-15T09:11:18;1.10;94.43
43772;HTU21D;59066;54.782;32.024;2024-01-15T09:13:46;1.09;94.43
43772;HTU21D;59066;54.782;32.024;2024-01-15T09:16:14;1.09;94.85
43772;HTU21D;59066;54.782;32.024;2024-01-15T09:19:01;1.09;94.76
43772;HTU21D;59066;54.782;32.024;2024-01-15T09:21:32;1.13;94.85
43772;HTU21D;59066;54.782;32.024;2024-01-15T09:24:00;1.11;94.60
43772;HTU21D;59066;54.782;32.024;2024-01-15T09:26:27;1.20;94.54
43772;HTU21D;59066;54.782;32.024;2024-01-15T09:28:55;1.24;94.14
43772;HTU21D;59066;54.782;32.024;2024-01-15T09:31:24;1.20;94.15
43772;HTU21D;59066;54.782;32.024;2024-01-15T09:33:52;1.20;93.83
43772;HTU21D;59066;54.782;32.024;2024-01-15T09:36:23;1.22;94.00
43772;HTU21D;59066;54.782;32.024;2024-01-15T09:38:53;1.13;93.35
43772;HTU21D;59066;54.782;32.024;2024-01-15T09:41:23;1.21;94.22
43772;HTU21D;59066;54.782;32.024;2024-01-15T09:43:52;1.21;93.37
43772;HTU21D;59066;54.782;32.024;2024-01-15T09:46:21;1.20;93.82
43772;HTU21D;59066;54.782;32.024;2024-01-15T09:48:51;1.25;93.14
43772;HTU21D;59066;54.782;32.024;2024-01-15T09:51:19;1.21;93.17
43772;HTU21D;59066;54.782;32.024;2024-01-15T09:53:47;1.25;92.56
43772;HTU21D;59066;54.782;32.024;2024-01-15T09:56:16;1.26;92.34
43772;HTU21D;59066;54.782;32.024;2024-01-15T09:58:45;1.32;91.95
43772;HTU21D;59066;54.782;32.024;2024-01-15T10:01:13;1.32;91.62
43772;HTU21D;59066;54.782;32.024;2024-01-15T10:03:42;1.35;91.43
43772;HTU21D;59066;54.782;32.024;2024-01-15T10:06:11;1.36;91.15
43772;HTU21D;59066;54.782;32.024;2024-01-15T10:08:47;1.24;90.66
43772;HTU21D;59066;54.782;32.024;2024-01-15T10:11:16;1.20;91.05
43772;HTU21D;59066;54.782;32.024;2024-01-15T10:13:44;1.23;90.93
43772;HTU21D;59066;54.782;32.024;2024-01-15T10:16:14;1.18;90.99
43772;HTU21D;59066;54.782;32.024;2024-01-15T10:18:41;1.16;91.29
43772;HTU21D;59066;54.782;32.024;2024-01-15T10:21:11;1.14;91.57
43772;HTU21D;59066;54.782;32.024;2024-01-15T10:23:39;1.19;91.99
43772;HTU21D;59066;54.782;32.024;2024-01-15T10:26:07;1.23;92.35
43772;HTU21D;59066;54.782;32.024;2024-01-15T10:28:41;1.25;92.38
43772;HTU21D;59066;54.782;32.024;2024-01-15T10:31:10;1.28;92.79
43772;HTU21D;59066;54.782;32.024;2024-01-15T10:33:38;1.27;92.62
43772;HTU21D;59066;54.782;32.024;2024-01-15T10:36:09;1.32;92.59
43772;HTU21D;59066;54.782;32.024;2024-01-15T10:38:37;1.36;92.54
43772;HTU21D;59066;54.782;32.024;2024-01-15T10:41:05;1.34;92.22
43772;HTU21D;59066;54.782;32.024;2024-01-15T10:43:33;1.40;92.24
43772;HTU21D;59066;54.782;32.024;2024-01-15T10:46:01;1.39;91.50
43772;HTU21D;59066;54.782;32.024;2024-01-15T10:48:29;1.27;91.11
43772;HTU21D;59066;54.782;32.024;2024-01-15T10:50:58;1.20;91.31
43772;HTU21D;59066;54.782;32.024;2024-01-15T10:53:26;1.31;91.60
43772;HTU21D;59066;54.782;32.024;2024-01-15T10:55:56;1.34;91.33
43772;HTU21D;59066;54.782;32.024;2024-01-15T10:58:24;1.25;91.24
43772;HTU21D;59066;54.782;32.024;2024-01-15T11:00:53;1.23;91.34
43772;HTU21D;59066;54.782;32.024;2024-01-15T11:03:21;1.26;91.50
43772;HTU21D;59066;54.782;32.024;2024-01-15T11:05:48;1.13;91.63
43772;HTU21D;59066;54.782;32.024;2024-01-15T11:08:17;1.16;92.03
43772;HTU21D;59066;54.782;32.024;2024-01-15T11:10:48;1.21;92.27
43772;HTU21D;59066;54.782;32.024;2024-01-15T11:13:39;1.16;92.37
43772;HTU21D;59066;54.782;32.024;2024-01-15T11:16:11;1.06;92.50
43772;HTU21D;59066;54.782;32.024;2024-01-15T11:18:41;0.95;92.94
43772;HTU21D;59066;54.782;32.024;2024-01-15T11:25:44;0.93;94.02
43772;HTU21D;59066;54.782;32.024;2024-01-15T11:28:48;0.97;93.96
43772;HTU21D;59066;54.782;32.024;2024-01-15T11:34:08;0.92;94.41
43772;HTU21D;59066;54.782;32.024;2024-01-15T11:41:59;0.90;95.01
43772;HTU21D;59066;54.782;32.024;2024-01-15T11:44:27;0.88;94.43
43772;HTU21D;59066;54.782;32.024;2024-01-15T11:52:19;0.80;95.18
43772;HTU21D;59066;54.782;32.024;2024-01-15T11:55:01;0.86;95.55
43772;HTU21D;59066;54.782;32.024;2024-01-15T11:59:59;0.79;95.35
43772;HTU21D;59066;54.782;32.024;2024-01-15T12:02:27;0.81;95.26
43772;HTU21D;59066;54.782;32.024;2024-01-15T12:04:55;0.86;95.29
43772;HTU21D;59066;54.782;32.024;2024-01-15T12:07:22;0.87;95.20
43772;HTU21D;59066;54.782;32.024;2024-01-15T12:09:50;0.88;95.25
43772;HTU21D;59066;54.782;32.024;2024-01-15T12:15:18;0.76;94.81
43772;HTU21D;59066;54.782;32.024;2024-01-15T12:17:46;0.80;94.93
43772;HTU21D;59066;54.782;32.024;2024-01-15T12:20:17;0.77;94.51
43772;HTU21D;59066;54.782;32.024;2024-01-15T12:22:45;0.77;94.81
43772;HTU21D;59066;54.782;32.024;2024-01-15T12:25:21;0.69;94.72
43772;HTU21D;59066;54.782;32.024;2024-01-15T12:27:49;0.69;95.04
43772;HTU21D;59066;54.782;32.024;2024-01-15T12:30:19;0.76;95.36
43772;HTU21D;59066;54.782;32.024;2024-01-15T12:32:47;0.79;95.20
43772;HTU21D;59066;54.782;32.024;2024-01-15T12:35:16;0.79;94.95
43772;HTU21D;59066;54.782;32.024;2024-01-15T12:37:44;0.71;94.98
43772;HTU21D;59066;54.782;32.024;2024-01-15T12:40:18;0.77;94.98
43772;HTU21D;59066;54.782;32.024;2024-01-15T12:42:47;0.67;94.82
43772;HTU21D;59066;54.782;32.024;2024-01-15T12:45:15;0.64;95.07
43772;HTU21D;59066;54.782;32.024;2024-01-15T12:47:43;0.62;94.86
43772;HTU21D;59066;54.782;32.024;2024-01-15T12:50:12;0.61;94.90
43772;HTU21D;59066;54.782;32.024;2024-01-15T12:52:44;0.61;95.11
43772;HTU21D;59066;54.782;32.024;2024-01-15T12:55:44;0.49;95.14
43772;HTU21D;59066;54.782;32.024;2024-01-15T12:58:12;0.51;95.27
43772;HTU21D;59066;54.782;32.024;2024-01-15T13:00:42;0.50;95.26
43772;HTU21D;59066;54.782;32.024;2024-01-15T13:03:11;0.46;95.26
43772;HTU21D;59066;54.782;32.024;2024-01-15T13:05:40;0.47;95.33
43772;HTU21D;59066;54.782;32.024;2024-01-15T13:08:08;0.47;95.75
43772;HTU21D;59066;54.782;32.024;2024-01-15T13:10:37;0.50;95.43
43772;HTU21D;59066;54.782;32.024;2024-01-15T13:13:05;0.47;95.84
43772;HTU21D;59066;54.782;32.024;2024-01-15T13:15:33;0.51;95.68
43772;HTU21D;59066;54.782;32.024;2024-01-15T13:18:01;0.53;95.81
43772;HTU21D;59066;54.782;32.024;2024-01-15T13:20:28;0.51;95.84
43772;HTU21D;59066;54.782;32.024;2024-01-15T13:22:58;0.51;96.05
43772;HTU21D;59066;54.782;32.024;2024-01-15T13:25:28;0.60;96.23
43772;HTU21D;59066;54.782;32.024;2024-01-15T13:27:56;0.53;95.91
43772;HTU21D;59066;54.782;32.024;2024-01-15T13:30:24;0.53;96.06
43772;HTU21D;59066;54.782;32.024;2024-01-15T13:32:54;0.53;96.40
43772;HTU21D;59066;54.782;32.024;2024-01-15T13:35:23;0.53;95.97
43772;HTU21D;59066;54.782;32.024;2024-01-15T13:37:53;0.54;96.05
43772;HTU21D;59066;54.782;32.024;2024-01-15T13:40:21;0.47;96.13
43772;HTU21D;59066;54.782;32.024;2024-01-15T13:42:50;0.46;96.15
43772;HTU21D;59066;54.782;32.024;2024-01-15T13:45:24;0.45;96.26
43772;HTU21D;59066;54.782;32.024;2024-01-15T13:47:53;0.40;96.53
43772;HTU21D;59066;54.782;32.024;2024-01-15T13:50:21;0.37;96.22
43772;HTU21D;59066;54.782;32.024;2024-01-15T13:52:51;0.34;96.56
43772;HTU21D;59066;54.782;32.024;2024-01-15T13:55:19;0.35;96.39
43772;HTU21D;59066;54.782;32.024;2024-01-15T13:57:47;0.35;96.56
43772;HTU21D;59066;54.782;32.024;2024-01-15T14:00:15;0.37;96.36
43772;HTU21D;59066;54.782;32.024;2024-01-15T14:02:46;0.34;96.40
43772;HTU21D;59066;54.782;32.024;2024-01-15T14:05:14;0.34;96.84
43772;HTU21D;59066;54.782;32.024;2024-01-15T14:07:42;0.34;96.29
43772;HTU21D;59066;54.782;32.024;2024-01-15T14:10:12;0.36;96.31
43772;HTU21D;59066;54.782;32.024;2024-01-15T14:12:40;0.28;96.36
43772;HTU21D;59066;54.782;32.024;2024-01-15T14:15:08;0.31;96.26
43772;HTU21D;59066;54.782;32.024;2024-01-15T14:17:37;0.34;96.10
43772;HTU21D;59066;54.782;32.024;2024-01-15T14:20:07;0.35;96.15
43772;HTU21D;59066;54.782;32.024;2024-01-15T14:22:38;0.39;96.14
43772;HTU21D;59066;54.782;32.024;2024-01-15T14:25:06;0.36;96.04
43772;HTU21D;59066;54.782;32.024;2024-01-15T14:27:34;0.36;96.18
43772;HTU21D;59066;54.782;32.024;2024-01-15T14:30:02;0.33;95.84
43772;HTU21D;59066;54.782;32.024;2024-01-15T14:32:34;0.34;95.90
43772;HTU21D;59066;54.782;32.024;2024-01-15T14:35:02;0.36;95.75
43772;HTU21D;59066;54.782;32.024;2024-01-15T14:37:31;0.33;95.76
43772;HTU21D;59066;54.782;32.024;2024-01-15T14:39:58;0.32;95.81
43772;HTU21D;59066;54.782;32.024;2024-01-15T14:42:26;0.31;95.84
43772;HTU21D;59066;54.782;32.024;2024-01-15T14:44:54;0.30;95.59
43772;HTU21D;59066;54.782;32.024;2024-01-15T14:47:21;0.29;95.66
43772;HTU21D;59066;54.782;32.024;2024-01-15T14:49:51;0.25;95.72
43772;HTU21D;59066;54.782;32.024;2024-01-15T14:52:19;0.29;96.00
43772;HTU21D;59066;54.782;32.024;2024-01-15T14:54:47;0.27;95.59
43772;HTU21D;59066;54.782;32.024;2024-01-15T14:57:15;0.23;95.91
43772;HTU21D;59066;54.782;32.024;2024-01-15T14:59:43;0.14;95.75
43772;HTU21D;59066;54.782;32.024;2024-01-15T15:02:11;0.16;96.13
43772;HTU21D;59066;54.782;32.024;2024-01-15T15:04:40;0.16;96.16
43772;HTU21D;59066;54.782;32.024;2024-01-15T15:07:11;0.15;96.42
43772;HTU21D;59066;54.782;32.024;2024-01-15T15:09:38;0.15;96.29
43772;HTU21D;59066;54.782;32.024;2024-01-15T15:12:07;0.18;96.36
43772;HTU21D;59066;54.782;32.024;2024-01-15T15:14:36;0.12;96.52
43772;HTU21D;59066;54.782;32.024;2024-01-15T15:17:14;0.12;96.33
43772;HTU21D;59066;54.782;32.024;2024-01-15T15:19:42;0.12;96.65
43772;HTU21D;59066;54.782;32.024;2024-01-15T15:22:12;0.10;96.38
43772;HTU21D;59066;54.782;32.024;2024-01-15T15:24:40;0.09;96.44
43772;HTU21D;59066;54.782;32.024;2024-01-15T15:27:07;0.12;96.64
43772;HTU21D;59066;54.782;32.024;2024-01-15T15:29:35;0.10;96.49
43772;HTU21D;59066;54.782;32.024;2024-01-15T15:32:05;0.13;96.52
43772;HTU21D;59066;54.782;32.024;2024-01-15T15:34:34;0.16;96.49
43772;HTU21D;59066;54.782;32.024;2024-01-15T15:37:02;0.12;96.70
43772;HTU21D;59066;54.782;32.024;2024-01-15T15:39:30;0.08;96.48
43772;HTU21D;59066;54.782;32.024;2024-01-15T15:41:59;0.03;96.73
43772;HTU21D;59066;54.782;32.024;2024-01-15T15:44:28;0.02;96.81